Аэропорт: Якутск. Якутск

ICAO: UEEE

METAR:
2019-11-21 09:00:00
UEEE 210900Z 30002MPS 9999 -SN NSC M30/M33 Q1015 R23L/450150 NOSIG RMK QFE752
METAR:
2019-11-21 08:00:00
TAF UEEE 210800Z 2109/2215 35003MPS 5000 -SN SCT030 OVC070 TEMPO 2109/2115 3200 -SN BR TEMPO 2115/2203 0300 FG VV002